Time;durP1;ratioP1;P1;durP2;ratioP2;P2;SDS_P1;SDS_P2;PMS_P1;PMS_P2;Temp;Humidity;BMP_temperature;BMP_pressure;BME280_temperature;BME280_humidity;BME280_pressure;Samples;Min_cycle;Max_cycle;Signal;HPM_P1;HPM_P2
2023/03/04 00:00:11;;;;;;;42.08;23.20;;;;;;;0.77;75.30;100148.22;339425;29;1163;-75
2023/03/04 00:00:23;;;;;;;40.75;22.02;;;;;;;0.84;75.10;100148.31;339563;29;1417;-73
2023/03/04 00:00:35;;;;;;;39.97;21.05;;;;;;;0.86;74.88;100147.47;339133;29;1892;-72
2023/03/04 00:00:47;;;;;;;38.58;20.48;;;;;;;0.92;74.94;100139.88;338983;29;1842;-73
2023/03/04 00:00:59;;;;;;;40.53;22.65;;;;;;;0.97;74.56;100145.09;338369;29;1060;-73
2023/03/04 00:01:12;;;;;;;44.97;25.02;;;;;;;1.00;74.59;100137.44;338758;29;1894;-72
2023/03/04 00:01:26;;;;;;;49.05;26.35;;;;;;;1.04;74.71;100141.78;339375;29;1640;-75
2023/03/04 00:01:38;;;;;;;47.95;24.83;;;;;;;1.01;74.26;100139.19;339716;29;1012;-73
2023/03/04 00:01:50;;;;;;;44.63;23.80;;;;;;;1.02;74.63;100140.03;339302;29;1282;-73
2023/03/04 00:02:02;;;;;;;43.78;24.08;;;;;;;1.01;74.54;100144.31;338570;29;1050;-74
2023/03/04 00:02:14;;;;;;;41.58;23.50;;;;;;;0.95;73.86;100144.22;339004;29;1134;-73
2023/03/04 00:02:26;;;;;;;39.30;22.20;;;;;;;0.92;74.11;100149.28;339816;29;1028;-75
2023/03/04 00:02:38;;;;;;;38.90;21.38;;;;;;;0.86;74.87;100149.19;339132;29;1680;-73
2023/03/04 00:02:50;;;;;;;38.35;21.30;;;;;;;0.86;74.66;100146.63;339812;29;1279;-73
2023/03/04 00:03:02;;;;;;;38.53;21.25;;;;;;;0.90;75.01;100150.94;338448;29;1834;-73
2023/03/04 00:03:14;;;;;;;38.13;21.73;;;;;;;0.86;74.95;100154.31;339158;29;1417;-72
2023/03/04 00:03:26;;;;;;;40.22;22.48;;;;;;;0.92;75.35;100144.16;338579;29;1311;-74
2023/03/04 00:03:38;;;;;;;42.30;24.20;;;;;;;0.88;75.33;100153.47;340240;28;2926;-73
2023/03/04 00:03:50;;;;;;;43.60;24.70;;;;;;;0.85;74.89;100150.91;339332;29;1642;-73
2023/03/04 00:04:02;;;;;;;42.35;24.45;;;;;;;0.88;74.96;100144.94;338621;29;1849;-74
2023/03/04 00:04:15;;;;;;;39.15;22.40;;;;;;;0.77;75.18;100148.22;338630;29;1043;-73
2023/03/04 00:04:27;;;;;;;39.95;21.52;;;;;;;0.69;74.56;100146.38;339261;29;1756;-75
2023/03/04 00:04:39;;;;;;;41.08;21.33;;;;;;;0.70;74.59;100154.06;339756;29;1202;-75
2023/03/04 00:04:51;;;;;;;40.30;21.27;;;;;;;0.67;75.62;100156.59;339769;29;1280;-74
2023/03/04 00:05:03;;;;;;;41.13;21.52;;;;;;;0.54;75.57;100152.09;338585;29;1727;-73
2023/03/04 00:05:15;;;;;;;40.30;21.33;;;;;;;0.44;76.01;100155.34;339658;29;1855;-72
2023/03/04 00:05:29;;;;;;;39.30;21.20;;;;;;;0.39;76.28;100151.03;339515;29;1089;-73
2023/03/04 00:05:41;;;;;;;40.50;22.05;;;;;;;0.37;76.09;100154.41;338800;29;1740;-75
2023/03/04 00:05:53;;;;;;;47.40;24.35;;;;;;;0.37;76.87;100151.84;339406;29;1138;-72
2023/03/04 00:06:06;;;;;;;49.35;25.70;;;;;;;0.31;76.48;100154.31;339641;29;1088;-72
2023/03/04 00:06:18;;;;;;;50.20;25.15;;;;;;;0.32;77.34;100153.44;339653;29;1062;-72
2023/03/04 00:06:30;;;;;;;46.17;23.65;;;;;;;0.34;77.33;100150.09;339609;29;1292;-72
2023/03/04 00:06:42;;;;;;;45.10;22.55;;;;;;;0.25;76.66;100144.81;337990;29;1074;-72
2023/03/04 00:06:54;;;;;;;41.45;21.23;;;;;;;0.31;76.88;100155.16;339660;29;1101;-72
2023/03/04 00:07:06;;;;;;;39.70;20.30;;;;;;;0.33;76.93;100150.94;338995;29;1699;-73
2023/03/04 00:07:18;;;;;;;36.17;19.17;;;;;;;0.44;76.99;100151.09;340513;28;1170;-73
2023/03/04 00:07:30;;;;;;;34.67;19.25;;;;;;;0.50;76.22;100151.19;340925;29;1136;-72
2023/03/04 00:07:42;;;;;;;35.08;19.33;;;;;;;0.57;75.96;100153.03;340994;28;1075;-72
2023/03/04 00:07:54;;;;;;;36.45;19.60;;;;;;;0.55;75.96;100151.28;339463;29;1787;-72
2023/03/04 00:08:06;;;;;;;37.83;19.45;;;;;;;0.55;75.43;100158.97;338525;29;1684;-75
2023/03/04 00:08:18;;;;;;;39.15;21.00;;;;;;;0.52;75.00;100157.19;339249;29;1675;-72
2023/03/04 00:08:30;;;;;;;40.97;22.00;;;;;;;0.47;75.30;100157.97;339485;29;1087;-72
2023/03/04 00:08:42;;;;;;;43.63;22.58;;;;;;;0.47;75.33;100157.97;339487;29;1304;-72
2023/03/04 00:08:54;;;;;;;44.53;23.30;;;;;;;0.44;74.24;100156.22;341056;29;1125;-72
2023/03/04 00:09:06;;;;;;;47.25;26.10;;;;;;;0.45;74.45;100151.97;340879;29;1072;-72
2023/03/04 00:09:18;;;;;;;50.10;28.10;;;;;;;0.43;74.97;100149.38;338317;29;2156;-75
2023/03/04 00:09:30;;;;;;;51.90;28.75;;;;;;;0.45;74.96;100151.97;338774;29;1987;-72
2023/03/04 00:09:45;;;;;;;50.05;26.90;;;;;;;0.49;75.50;100153.75;341055;28;1181;-73
2023/03/04 00:09:57;;;;;;;45.05;24.67;;;;;;;0.50;75.87;100148.63;339758;29;1544;-74
2023/03/04 00:10:10;;;;;;;47.05;26.17;;;;;;;0.55;76.16;100149.59;339654;29;1088;-74
2023/03/04 00:10:22;;;;;;;49.40;29.00;;;;;;;0.60;75.62;100152.19;339267;29;1458;-75
2023/03/04 00:10:34;;;;;;;46.00;27.83;;;;;;;0.61;75.20;100159.06;339687;29;1048;-72
2023/03/04 00:10:46;;;;;;;41.63;24.58;;;;;;;0.65;75.19;100150.59;340088;29;1291;-72
2023/03/04 00:10:58;;;;;;;38.78;21.83;;;;;;;0.68;75.67;100160.84;341212;28;1231;-72
2023/03/04 00:11:10;;;;;;;40.67;22.20;;;;;;;0.72;75.62;100157.50;339757;28;1652;-73
2023/03/04 00:11:22;;;;;;;40.80;22.00;;;;;;;0.76;75.03;100154.16;340648;29;1071;-72
2023/03/04 00:11:35;;;;;;;38.70;20.58;;;;;;;0.76;75.15;100159.28;338473;29;903;-75
2023/03/04 00:11:47;;;;;;;35.50;18.15;;;;;;;0.83;74.65;100154.28;339724;29;1328;-74
2023/03/04 00:11:59;;;;;;;35.67;17.75;;;;;;;0.87;75.07;100156.03;340483;29;1080;-74
2023/03/04 00:12:14;;;;;;;37.65;18.30;;;;;;;0.88;74.58;100155.19;340846;29;1174;-73
2023/03/04 00:12:28;;;;;;;36.97;18.92;;;;;;;0.90;74.44;100153.50;340876;29;1110;-75
2023/03/04 00:12:40;;;;;;;37.72;19.05;;;;;;;0.96;74.75;100156.16;340862;29;1102;-73
2023/03/04 00:12:51;;;;;;;37.05;18.92;;;;;;;0.98;74.47;100157.03;339982;29;1546;-76
2023/03/04 00:13:03;;;;;;;34.95;18.33;;;;;;;1.00;74.33;100155.38;340683;29;1093;-73
2023/03/04 00:13:15;;;;;;;33.33;17.75;;;;;;;1.03;74.44;100157.09;340780;29;1076;-75
2023/03/04 00:13:27;;;;;;;34.30;17.90;;;;;;;1.04;74.65;100154.56;340495;29;1601;-75
2023/03/04 00:13:39;;;;;;;35.22;17.85;;;;;;;1.07;73.90;100153.78;340202;29;1109;-74
2023/03/04 00:13:51;;;;;;;36.03;18.38;;;;;;;1.08;73.89;100156.34;340747;29;1305;-74
2023/03/04 00:14:03;;;;;;;36.20;18.10;;;;;;;1.05;73.74;100156.31;340692;29;1786;-75
2023/03/04 00:14:15;;;;;;;36.25;18.40;;;;;;;1.07;73.62;100149.50;340830;29;1015;-73
2023/03/04 00:14:27;;;;;;;36.25;18.73;;;;;;;1.02;74.29;100161.38;340636;29;1101;-74
2023/03/04 00:14:41;;;;;;;36.97;18.25;;;;;;;1.00;74.62;100155.38;340582;29;1284;-75
2023/03/04 00:14:53;;;;;;;39.17;18.25;;;;;;;0.93;74.75;100166.38;340247;29;1495;-73
2023/03/04 00:15:06;;;;;;;38.85;18.33;;;;;;;0.82;75.35;100160.22;340777;29;1555;-73
2023/03/04 00:15:17;;;;;;;40.00;18.58;;;;;;;0.76;74.61;100154.16;340561;29;1043;-74
2023/03/04 00:15:29;;;;;;;36.55;18.38;;;;;;;0.72;74.74;100157.50;339568;29;1685;-77
2023/03/04 00:15:41;;;;;;;35.38;18.25;;;;;;;0.58;75.62;100156.44;339648;29;1882;-75
2023/03/04 00:15:53;;;;;;;38.80;18.80;;;;;;;0.64;75.15;100160.78;338511;29;1205;-72
2023/03/04 00:16:06;;;;;;;40.90;18.50;;;;;;;0.68;75.06;100154.88;337748;29;1632;-74
2023/03/04 00:16:18;;;;;;;40.17;18.58;;;;;;;0.65;75.15;100158.25;340676;29;1182;-72
2023/03/04 00:16:30;;;;;;;38.85;19.00;;;;;;;0.69;75.08;100157.47;338992;29;1657;-74
2023/03/04 00:16:42;;;;;;;39.65;19.38;;;;;;;0.65;75.58;100162.53;339076;29;1738;-72
2023/03/04 00:16:54;;;;;;;40.28;19.27;;;;;;;0.54;75.53;100157.22;338574;29;1688;-72
2023/03/04 00:17:06;;;;;;;39.92;19.42;;;;;;;0.50;75.67;100160.56;338390;29;1085;-73
2023/03/04 00:17:18;;;;;;;38.45;19.55;;;;;;;0.45;76.13;100159.66;339010;29;1816;-72
2023/03/04 00:17:30;;;;;;;39.22;19.55;;;;;;;0.36;76.32;100153.56;339447;29;1221;-72
2023/03/04 00:17:43;;;;;;;38.03;19.08;;;;;;;0.28;76.97;100155.13;339158;29;1654;-72
2023/03/04 00:17:55;;;;;;;36.17;18.70;;;;;;;0.17;77.00;100162.56;338558;29;2295;-72
2023/03/04 00:18:07;;;;;;;38.15;18.65;;;;;;;0.26;77.31;100159.31;339891;29;1070;-72
2023/03/04 00:18:22;;;;;;;39.13;18.65;;;;;;;0.22;76.94;100157.53;340843;29;1189;-73
2023/03/04 00:18:34;;;;;;;37.97;18.30;;;;;;;0.25;77.03;100155.06;340564;29;1379;-74
2023/03/04 00:18:46;;;;;;;39.40;18.23;;;;;;;0.19;76.78;100154.94;339039;29;1243;-73
2023/03/04 00:18:58;;;;;;;40.10;18.27;;;;;;;0.30;76.76;100155.13;337859;29;1384;-73
2023/03/04 00:19:10;;;;;;;38.33;18.33;;;;;;;0.32;76.56;100164.56;337857;29;1659;-72
2023/03/04 00:19:22;;;;;;;37.17;18.38;;;;;;;0.35;76.80;100156.94;338876;29;1279;-73
2023/03/04 00:19:34;;;;;;;36.40;18.42;;;;;;;0.44;76.75;100158.75;339396;29;1028;-72
2023/03/04 00:19:46;;;;;;;36.63;18.20;;;;;;;0.43;76.14;100159.63;338854;29;1554;-73
2023/03/04 00:19:58;;;;;;;36.42;18.15;;;;;;;0.38;75.88;100164.66;339309;29;1746;-72
2023/03/04 00:20:11;;;;;;;38.45;18.77;;;;;;;0.31;75.52;100160.25;340220;29;1251;-72
2023/03/04 00:20:23;;;;;;;39.42;18.90;;;;;;;0.31;75.53;100159.41;340560;29;1292;-72
2023/03/04 00:20:35;;;;;;;39.72;18.63;;;;;;;0.32;75.31;100159.44;340815;29;1044;-72
2023/03/04 00:20:48;;;;;;;39.90;18.85;;;;;;;0.32;75.26;100156.00;340258;29;1327;-75
2023/03/04 00:21:00;;;;;;;38.17;18.48;;;;;;;0.38;75.65;100162.09;339418;29;1285;-72
2023/03/04 00:21:12;;;;;;;36.35;18.35;;;;;;;0.39;75.49;100153.59;339452;29;1314;-72
2023/03/04 00:21:24;;;;;;;36.53;18.27;;;;;;;0.42;74.73;100151.91;339443;29;1307;-72
2023/03/04 00:21:36;;;;;;;36.92;18.05;;;;;;;0.44;75.43;100156.22;338766;29;1621;-72
2023/03/04 00:21:48;;;;;;;37.97;18.27;;;;;;;0.41;74.94;100157.88;339989;29;1360;-73
2023/03/04 00:22:01;;;;;;;38.20;18.48;;;;;;;0.45;74.61;100152.84;341259;28;1214;-73
2023/03/04 00:22:13;;;;;;;38.78;18.88;;;;;;;0.43;75.31;100153.66;342230;28;1403;-73
2023/03/04 00:22:25;;;;;;;39.63;18.75;;;;;;;0.43;75.19;100157.06;342008;28;1179;-72
2023/03/04 00:22:37;;;;;;;38.63;18.83;;;;;;;0.49;75.28;100148.63;339645;28;1201;-72
2023/03/04 00:22:49;;;;;;;35.17;18.50;;;;;;;0.54;75.14;100154.66;339521;29;1815;-73
2023/03/04 00:23:01;;;;;;;34.55;18.30;;;;;;;0.57;75.12;100154.72;340381;29;1760;-72
2023/03/04 00:23:13;;;;;;;34.10;17.55;;;;;;;0.61;75.39;100148.81;340679;29;1786;-73
2023/03/04 00:23:25;;;;;;;35.15;17.45;;;;;;;0.65;74.96;100155.72;340090;29;1727;-73
2023/03/04 00:23:37;;;;;;;35.97;17.40;;;;;;;0.65;75.41;100155.72;340483;28;1308;-73
2023/03/04 00:23:49;;;;;;;34.65;17.10;;;;;;;0.63;75.30;100154.81;340463;29;1188;-72
2023/03/04 00:24:01;;;;;;;36.05;17.27;;;;;;;0.67;75.26;100151.47;339689;29;1054;-73
2023/03/04 00:24:13;;;;;;;34.67;17.08;;;;;;;0.70;74.78;100153.22;339496;29;1342;-72
2023/03/04 00:24:25;;;;;;;33.60;17.75;;;;;;;0.71;74.76;100155.81;338461;29;1039;-72
2023/03/04 00:24:37;;;;;;;33.22;18.15;;;;;;;0.74;75.23;100155.84;338336;29;1743;-77
2023/03/04 00:24:49;;;;;;;35.45;18.80;;;;;;;0.77;75.15;100150.78;339432;29;1523;-73
2023/03/04 00:25:02;;;;;;;36.70;19.52;;;;;;;0.78;75.24;100152.47;339872;29;1614;-75
2023/03/04 00:25:14;;;;;;;38.47;21.52;;;;;;;0.81;74.97;100153.41;338833;29;1907;-75
2023/03/04 00:25:26;;;;;;;41.30;22.58;;;;;;;0.83;74.92;100149.16;339689;29;1587;-73
2023/03/04 00:25:38;;;;;;;40.28;20.88;;;;;;;0.83;74.97;100155.13;340100;29;1028;-73
2023/03/04 00:25:52;;;;;;;37.88;19.77;;;;;;;0.82;74.89;100152.53;339565;29;1291;-73
2023/03/04 00:26:04;;;;;;;37.05;19.40;;;;;;;0.85;74.79;100157.72;339176;29;1636;-75
2023/03/04 00:26:16;;;;;;;37.92;19.52;;;;;;;0.87;74.01;100156.91;339367;29;1647;-73
2023/03/04 00:26:28;;;;;;;41.05;20.35;;;;;;;0.89;74.00;100154.38;339632;29;1201;-74
2023/03/04 00:26:40;;;;;;;41.78;20.25;;;;;;;0.90;74.16;100153.50;338592;29;1858;-77
2023/03/04 00:26:52;;;;;;;40.95;19.42;;;;;;;0.82;74.39;100157.66;339498;29;1209;-72
2023/03/04 00:27:07;;;;;;;38.03;18.85;;;;;;;0.84;74.12;100153.44;339640;29;1762;-73
2023/03/04 00:27:19;;;;;;;35.72;18.17;;;;;;;0.79;74.32;100163.59;339060;29;1637;-72
2023/03/04 00:27:31;;;;;;;34.60;17.15;;;;;;;0.83;74.46;100154.28;339597;29;1064;-72
2023/03/04 00:27:43;;;;;;;34.38;17.15;;;;;;;0.84;75.27;100155.97;339180;29;1745;-74
2023/03/04 00:27:57;;;;;;;32.75;17.73;;;;;;;0.77;75.18;100158.44;338477;29;1888;-73
2023/03/04 00:28:09;;;;;;;34.92;17.75;;;;;;;0.71;75.48;100150.69;339360;29;2441;-73
2023/03/04 00:28:21;;;;;;;36.63;17.50;;;;;;;0.66;75.73;100156.56;340392;28;1665;-77
2023/03/04 00:28:33;;;;;;;35.40;17.13;;;;;;;0.72;75.21;100149.84;338574;29;1242;-75
2023/03/04 00:28:45;;;;;;;34.53;17.23;;;;;;;0.75;75.74;100157.56;338579;29;1279;-74
2023/03/04 00:28:57;;;;;;;34.15;17.48;;;;;;;0.71;75.05;100155.81;339714;29;1079;-73
2023/03/04 00:29:09;;;;;;;34.72;17.90;;;;;;;0.63;75.55;100148.84;338569;29;1277;-75
2023/03/04 00:29:21;;;;;;;36.38;18.35;;;;;;;0.58;75.87;100151.31;338583;29;1218;-73
2023/03/04 00:29:33;;;;;;;38.05;18.35;;;;;;;0.55;75.50;100161.53;338745;29;1637;-73
2023/03/04 00:29:45;;;;;;;38.28;18.35;;;;;;;0.55;75.96;100158.97;339600;29;1472;-73
2023/03/04 00:29:57;;;;;;;36.70;18.25;;;;;;;0.51;75.86;100162.31;338340;29;1843;-74
2023/03/04 00:30:09;;;;;;;33.67;17.95;;;;;;;0.51;76.12;100157.19;339971;29;1547;-72
2023/03/04 00:30:21;;;;;;;34.95;19.15;;;;;;;0.49;76.25;100158.88;340811;28;1334;-75
2023/03/04 00:30:33;;;;;;;41.35;19.67;;;;;;;0.44;75.48;100155.34;339206;29;1854;-72
2023/03/04 00:30:45;;;;;;;41.03;19.65;;;;;;;0.38;76.47;100157.00;339682;29;1464;-73
2023/03/04 00:30:57;;;;;;;38.13;19.27;;;;;;;0.41;75.63;100152.75;339623;29;1047;-73
2023/03/04 00:31:10;;;;;;;36.38;18.83;;;;;;;0.44;76.54;100155.34;339516;29;1586;-76
2023/03/04 00:31:23;;;;;;;36.13;18.25;;;;;;;0.33;75.92;100158.59;338498;29;1265;-73
2023/03/04 00:31:35;;;;;;;37.83;18.17;;;;;;;0.39;75.56;100158.69;338348;29;1069;-72
2023/03/04 00:31:47;;;;;;;38.22;18.33;;;;;;;0.41;76.24;100155.31;338539;29;1653;-74
2023/03/04 00:31:59;;;;;;;38.83;18.20;;;;;;;0.46;76.07;100153.69;339509;29;1812;-73
2023/03/04 00:32:11;;;;;;;38.78;18.38;;;;;;;0.44;75.66;100151.09;339828;29;1122;-72
2023/03/04 00:32:23;;;;;;;36.67;17.80;;;;;;;0.41;75.03;100155.31;338412;29;1423;-72
2023/03/04 00:32:35;;;;;;;37.00;17.77;;;;;;;0.45;74.98;100157.09;338312;29;1147;-72
2023/03/04 00:32:47;;;;;;;38.67;18.08;;;;;;;0.47;75.06;100157.97;338208;29;1688;-73
2023/03/04 00:32:59;;;;;;;39.00;18.30;;;;;;;0.44;74.82;100158.75;340043;28;1150;-73
2023/03/04 00:33:11;;;;;;;37.57;18.33;;;;;;;0.46;74.63;100161.34;339806;29;1043;-72
2023/03/04 00:33:23;;;;;;;35.67;18.13;;;;;;;0.43;74.71;100158.75;339165;29;1789;-74
2023/03/04 00:33:36;;;;;;;33.60;18.00;;;;;;;0.44;74.40;100157.91;339424;29;1434;-72
2023/03/04 00:33:48;;;;;;;32.80;17.73;;;;;;;0.38;74.78;100156.09;339497;29;1360;-72
2023/03/04 00:34:00;;;;;;;34.72;18.15;;;;;;;0.42;74.43;100154.47;338770;29;1523;-72
2023/03/04 00:34:12;;;;;;;35.63;17.98;;;;;;;0.42;73.83;100162.13;339492;29;1827;-73
2023/03/04 00:34:24;;;;;;;34.65;18.23;;;;;;;0.47;74.49;100160.53;339336;29;1315;-72
2023/03/04 00:34:36;;;;;;;37.72;19.80;;;;;;;0.50;74.49;100160.56;338088;29;1923;-72
2023/03/04 00:34:48;;;;;;;38.47;19.92;;;;;;;0.51;74.30;100155.47;339181;29;1531;-72
2023/03/04 00:35:00;;;;;;;37.20;19.10;;;;;;;0.56;74.73;100155.56;339530;29;1212;-72
2023/03/04 00:35:11;;;;;;;34.25;18.27;;;;;;;0.60;74.42;100167.56;339479;29;1116;-73
2023/03/04 00:35:24;;;;;;;35.78;18.35;;;;;;;0.63;74.58;100152.25;339377;29;1129;-72
2023/03/04 00:35:36;;;;;;;37.20;18.33;;;;;;;0.66;74.04;100152.28;339182;29;1171;-72
2023/03/04 00:35:48;;;;;;;39.55;20.05;;;;;;;0.70;74.58;100159.19;337372;29;2377;-72
2023/03/04 00:36:01;;;;;;;43.00;23.15;;;;;;;0.74;74.44;100160.94;339289;29;1761;-72
2023/03/04 00:36:13;;;;;;;43.70;22.73;;;;;;;0.69;74.30;100154.91;339503;29;1120;-74
2023/03/04 00:36:25;;;;;;;39.38;19.75;;;;;;;0.70;74.57;100159.19;339608;29;1015;-75
2023/03/04 00:36:37;;;;;;;38.13;19.02;;;;;;;0.72;74.38;100156.66;338881;29;1321;-73
2023/03/04 00:36:49;;;;;;;36.42;18.83;;;;;;;0.76;74.24;100159.28;339695;29;1320;-73
2023/03/04 00:37:02;;;;;;;38.83;18.83;;;;;;;0.79;74.75;100155.94;339378;29;1048;-73
2023/03/04 00:37:14;;;;;;;40.92;19.20;;;;;;;0.81;74.03;100151.69;338596;29;1728;-73
2023/03/04 00:37:26;;;;;;;41.58;20.92;;;;;;;0.81;74.35;100155.97;339493;29;1827;-73
2023/03/04 00:37:38;;;;;;;44.78;24.58;;;;;;;0.82;74.70;100157.66;339708;29;1169;-73
2023/03/04 00:37:50;;;;;;;47.58;26.08;;;;;;;0.84;74.36;100161.09;339175;29;1271;-72
2023/03/04 00:38:02;;;;;;;43.40;22.88;;;;;;;0.85;74.05;100152.59;338818;29;1782;-73
2023/03/04 00:38:17;;;;;;;42.45;21.65;;;;;;;0.83;74.07;100155.13;338727;29;1826;-74
2023/03/04 00:38:29;;;;;;;42.17;21.70;;;;;;;0.86;74.46;100160.28;340505;29;1012;-73
2023/03/04 00:38:41;;;;;;;42.80;22.25;;;;;;;0.88;74.02;100152.63;339299;28;1716;-77
2023/03/04 00:38:53;;;;;;;40.35;22.08;;;;;;;0.89;73.50;100160.34;339340;29;1337;-73
2023/03/04 00:39:05;;;;;;;43.50;22.75;;;;;;;0.92;73.79;100159.50;339698;29;1065;-73
2023/03/04 00:39:17;;;;;;;42.30;21.73;;;;;;;0.92;74.09;100159.50;339511;29;1084;-73
2023/03/04 00:39:29;;;;;;;42.58;22.20;;;;;;;0.94;73.91;100160.41;339355;29;1401;-73
2023/03/04 00:39:41;;;;;;;40.20;22.08;;;;;;;0.96;73.77;100158.72;339734;29;1909;-72
2023/03/04 00:39:53;;;;;;;39.08;22.23;;;;;;;0.94;73.59;100153.56;338478;29;1317;-73
2023/03/04 00:40:05;;;;;;;38.65;22.13;;;;;;;0.95;73.82;100160.44;338940;28;1666;-73
2023/03/04 00:40:17;;;;;;;37.85;19.80;;;;;;;0.96;73.63;100156.16;339423;29;1786;-73
2023/03/04 00:40:29;;;;;;;38.28;19.35;;;;;;;0.95;73.78;100147.63;338426;29;1693;-74
2023/03/04 00:40:41;;;;;;;39.60;19.58;;;;;;;0.97;73.20;100153.63;339482;29;1194;-73
2023/03/04 00:40:53;;;;;;;40.42;20.83;;;;;;;0.98;73.32;100152.78;338495;29;1566;-73
2023/03/04 00:41:05;;;;;;;38.70;20.15;;;;;;;0.98;73.10;100157.03;338412;29;1067;-72
2023/03/04 00:41:17;;;;;;;39.60;20.33;;;;;;;1.00;73.69;100152.81;338253;29;1062;-72
2023/03/04 00:41:29;;;;;;;40.33;20.90;;;;;;;1.00;73.14;100156.22;338313;29;1193;-73
2023/03/04 00:41:41;;;;;;;38.38;19.88;;;;;;;1.02;73.05;100166.50;338294;29;1559;-73
2023/03/04 00:41:53;;;;;;;36.75;18.65;;;;;;;0.98;73.25;100157.91;338440;29;1750;-75
2023/03/04 00:42:05;;;;;;;39.00;19.52;;;;;;;0.97;73.03;100158.75;339462;29;1205;-72
2023/03/04 00:42:17;;;;;;;39.03;21.05;;;;;;;0.99;72.43;100146.84;339607;29;1112;-73
2023/03/04 00:42:29;;;;;;;41.90;23.95;;;;;;;0.97;73.00;100153.63;339581;29;1093;-73
2023/03/04 00:42:41;;;;;;;44.13;25.73;;;;;;;0.94;72.89;100158.69;338557;29;1662;-73
2023/03/04 00:42:53;;;;;;;46.95;28.38;;;;;;;0.94;73.17;100160.41;337930;29;1391;-73
2023/03/04 00:43:05;;;;;;;47.75;30.35;;;;;;;0.94;73.35;100147.59;338434;29;1073;-72
2023/03/04 00:43:17;;;;;;;48.10;30.75;;;;;;;0.96;72.94;100161.28;339581;29;1191;-73
2023/03/04 00:43:30;;;;;;;47.28;29.27;;;;;;;0.95;73.48;100154.47;338766;29;1846;-72
2023/03/04 00:43:42;;;;;;;44.08;27.13;;;;;;;0.91;73.22;100157.81;339480;29;1698;-76
2023/03/04 00:43:54;;;;;;;43.95;26.08;;;;;;;0.87;73.09;100156.03;339285;29;1716;-74
2023/03/04 00:44:06;;;;;;;43.92;25.13;;;;;;;0.87;73.32;100161.16;339629;29;1024;-73
2023/03/04 00:44:18;;;;;;;42.45;23.40;;;;;;;0.89;73.34;100159.50;338888;29;2120;-76
2023/03/04 00:44:30;;;;;;;39.30;21.92;;;;;;;0.90;73.30;100156.06;338411;29;1029;-75
2023/03/04 00:44:42;;;;;;;38.95;20.50;;;;;;;0.96;73.11;100156.16;338317;29;1209;-72
2023/03/04 00:44:54;;;;;;;37.67;19.17;;;;;;;0.94;73.37;100157.84;338627;29;1659;-72
2023/03/04 00:45:07;;;;;;;36.75;18.42;;;;;;;0.94;72.88;100145.91;339907;29;1852;-72
2023/03/04 00:45:19;;;;;;;34.10;17.83;;;;;;;0.94;73.66;100152.72;339882;29;1630;-72
2023/03/04 00:45:31;;;;;;;34.28;18.63;;;;;;;0.94;73.40;100153.56;339495;29;1091;-73
2023/03/04 00:45:43;;;;;;;39.25;21.55;;;;;;;0.96;72.77;100158.72;339144;29;1594;-73
2023/03/04 00:45:55;;;;;;;40.30;22.92;;;;;;;0.99;73.42;100151.09;338888;29;1535;-73
2023/03/04 00:46:07;;;;;;;36.83;20.33;;;;;;;0.99;72.74;100153.66;339944;29;1022;-73
2023/03/04 00:46:19;;;;;;;35.80;18.30;;;;;;;0.98;73.00;100159.59;339513;29;1248;-73
2023/03/04 00:46:31;;;;;;;37.35;18.80;;;;;;;0.98;73.37;100165.56;338228;29;1928;-73
2023/03/04 00:46:43;;;;;;;39.00;20.10;;;;;;;0.99;72.79;100157.06;337783;29;1016;-74
2023/03/04 00:46:58;;;;;;;37.00;19.52;;;;;;;1.01;72.82;100159.66;338115;29;1243;-74
2023/03/04 00:47:10;;;;;;;35.22;18.50;;;;;;;1.00;72.51;100152.81;338211;29;1016;-73
2023/03/04 00:47:22;;;;;;;34.10;17.70;;;;;;;1.00;72.98;100156.22;338396;29;1743;-72
2023/03/04 00:47:34;;;;;;;35.25;17.63;;;;;;;1.00;72.78;100163.03;341290;28;1074;-72
2023/03/04 00:47:46;;;;;;;36.85;17.67;;;;;;;0.98;72.64;100159.59;341413;28;1369;-72
2023/03/04 00:47:58;;;;;;;37.40;18.02;;;;;;;1.01;72.85;100164.78;340666;29;1170;-74
2023/03/04 00:48:10;;;;;;;38.92;19.08;;;;;;;0.98;72.96;100160.47;339390;29;1721;-73
2023/03/04 00:48:23;;;;;;;39.75;19.42;;;;;;;0.98;72.66;100154.47;338950;29;1779;-75
2023/03/04 00:48:35;;;;;;;37.60;18.95;;;;;;;0.99;72.98;100156.22;340750;29;1043;-75
2023/03/04 00:48:47;;;;;;;37.03;17.73;;;;;;;0.99;72.39;100161.34;339431;29;1173;-75
2023/03/04 00:48:59;;;;;;;37.92;17.92;;;;;;;1.00;73.16;100153.66;339363;29;1037;-74
2023/03/04 00:49:11;;;;;;;37.53;17.48;;;;;;;1.01;73.01;100154.53;339710;29;840;-74
2023/03/04 00:49:23;;;;;;;36.85;17.75;;;;;;;0.99;72.80;100161.34;339565;29;1336;-73
2023/03/04 00:49:36;;;;;;;36.22;18.48;;;;;;;0.99;72.28;100156.22;339592;29;1293;-73
2023/03/04 00:49:48;;;;;;;37.42;19.17;;;;;;;0.98;72.88;100164.72;339376;29;1306;-73
2023/03/04 00:50:01;;;;;;;37.65;18.45;;;;;;;1.00;72.63;100163.03;339621;29;1293;-72
2023/03/04 00:50:13;;;;;;;38.60;18.63;;;;;;;0.98;72.96;100154.47;338170;29;1031;-74
2023/03/04 00:50:25;;;;;;;38.65;18.63;;;;;;;0.98;73.11;100164.72;337019;29;1786;-74
2023/03/04 00:50:37;;;;;;;35.58;18.55;;;;;;;1.00;73.06;100157.94;338161;29;1513;-76
2023/03/04 00:50:52;;;;;;;35.13;17.98;;;;;;;1.01;72.36;100159.66;338797;29;2145;-75
2023/03/04 00:51:04;;;;;;;36.45;17.77;;;;;;;1.00;73.04;100163.03;339396;29;1203;-72
2023/03/04 00:51:16;;;;;;;34.08;17.10;;;;;;;1.00;72.29;100158.78;339549;29;1087;-73
2023/03/04 00:51:28;;;;;;;32.70;16.88;;;;;;;1.03;72.55;100149.41;339470;29;1263;-72
2023/03/04 00:51:40;;;;;;;33.10;17.10;;;;;;;1.05;72.47;100161.44;339429;29;1207;-73
2023/03/04 00:51:52;;;;;;;33.72;17.00;;;;;;;1.05;73.00;100161.44;339105;29;1326;-73
2023/03/04 00:52:04;;;;;;;33.92;17.23;;;;;;;1.07;73.04;100156.34;339356;29;1063;-73
2023/03/04 00:52:16;;;;;;;36.70;17.90;;;;;;;1.07;72.40;100153.78;339554;29;1180;-72
2023/03/04 00:52:28;;;;;;;37.70;18.15;;;;;;;1.07;72.78;100153.78;339262;29;1494;-72
2023/03/04 00:52:40;;;;;;;36.60;17.65;;;;;;;1.06;72.32;100152.88;341055;28;1207;-73
2023/03/04 00:52:52;;;;;;;35.05;17.00;;;;;;;1.08;72.29;100155.47;339511;29;1272;-72
2023/03/04 00:53:04;;;;;;;35.53;16.90;;;;;;;1.05;72.11;100156.31;339583;29;1095;-73
2023/03/04 00:53:16;;;;;;;35.58;17.05;;;;;;;1.04;72.42;100157.13;339393;29;1056;-72
2023/03/04 00:53:28;;;;;;;34.55;17.10;;;;;;;1.05;72.43;100151.19;339377;29;1959;-73
2023/03/04 00:53:40;;;;;;;35.35;17.17;;;;;;;0.99;72.76;100157.06;338490;29;1808;-72
2023/03/04 00:53:52;;;;;;;36.42;18.42;;;;;;;0.98;72.42;100159.59;339232;29;1304;-72
2023/03/04 00:54:04;;;;;;;35.85;18.77;;;;;;;0.91;71.97;100158.66;339231;29;1068;-73
2023/03/04 00:54:16;;;;;;;36.97;19.63;;;;;;;0.92;72.63;100159.50;338716;29;1909;-73
2023/03/04 00:54:29;;;;;;;36.17;20.30;;;;;;;0.94;72.13;100157.84;338810;29;1881;-74
2023/03/04 00:54:41;;;;;;;35.85;19.90;;;;;;;0.95;72.65;100162.13;339777;29;1007;-74
2023/03/04 00:54:53;;;;;;;33.40;18.40;;;;;;;0.98;72.30;100164.72;339546;29;1087;-74
2023/03/04 00:55:06;;;;;;;31.60;17.45;;;;;;;0.92;72.65;100159.50;339604;29;1139;-73
2023/03/04 00:55:18;;;;;;;31.48;17.17;;;;;;;0.94;72.34;100161.25;339634;29;1069;-73
2023/03/04 00:55:30;;;;;;;33.60;17.35;;;;;;;0.96;72.49;100154.44;339159;29;1705;-74
2023/03/04 00:55:42;;;;;;;33.67;17.35;;;;;;;0.98;72.06;100154.47;339143;29;2003;-72
2023/03/04 00:55:54;;;;;;;33.38;17.25;;;;;;;0.96;72.70;100162.13;338885;29;1785;-73
2023/03/04 00:56:06;;;;;;;33.65;17.35;;;;;;;0.95;72.44;100154.47;339690;29;1088;-72
2023/03/04 00:56:18;;;;;;;36.13;19.17;;;;;;;0.97;72.04;100157.91;339746;29;1221;-72
2023/03/04 00:56:30;;;;;;;37.83;20.60;;;;;;;0.97;72.52;100152.78;339283;29;1009;-76
2023/03/04 00:56:42;;;;;;;36.67;19.30;;;;;;;0.98;72.38;100152.78;338848;29;1083;-73
2023/03/04 00:56:54;;;;;;;36.22;18.30;;;;;;;0.95;72.44;100155.31;338031;29;1037;-74
2023/03/04 00:57:06;;;;;;;34.70;17.42;;;;;;;0.97;71.95;100157.91;338099;29;1052;-74
2023/03/04 00:57:18;;;;;;;34.30;17.55;;;;;;;0.99;72.64;100156.22;338330;29;1052;-73
2023/03/04 00:57:30;;;;;;;33.97;17.25;;;;;;;0.99;72.62;100161.34;338020;29;1079;-73